createdAt,value
2023-05-14T00:00:04.239Z,0.00
2023-05-14T00:01:04.228Z,0.00
2023-05-14T00:02:04.270Z,0.00
2023-05-14T00:04:04.266Z,0.00
2023-05-14T00:05:04.212Z,0.00
2023-05-14T00:06:04.166Z,0.00
2023-05-14T00:07:04.148Z,0.00
2023-05-14T00:08:04.196Z,0.00
2023-05-14T00:09:04.120Z,0.00
2023-05-14T00:10:04.126Z,0.00
2023-05-14T00:11:04.092Z,0.00
2023-05-14T00:12:04.091Z,0.00
2023-05-14T00:13:04.116Z,0.00
2023-05-14T00:14:04.057Z,0.00
2023-05-14T00:15:04.046Z,0.00
2023-05-14T00:16:04.103Z,0.00
2023-05-14T00:17:04.002Z,0.00
2023-05-14T00:18:04.170Z,0.00
2023-05-14T00:19:04.110Z,0.00
2023-05-14T00:20:03.980Z,0.00
2023-05-14T00:21:03.996Z,0.00
2023-05-14T00:22:03.957Z,0.00
2023-05-14T00:23:03.942Z,0.00
2023-05-14T00:24:03.933Z,0.00
2023-05-14T00:25:03.921Z,0.00
2023-05-14T00:26:03.915Z,0.00
2023-05-14T00:27:03.910Z,0.00
2023-05-14T00:28:03.878Z,0.00
2023-05-14T00:29:03.886Z,0.00
2023-05-14T00:30:03.877Z,0.00
2023-05-14T00:31:03.840Z,0.00
2023-05-14T00:32:03.902Z,0.00
2023-05-14T00:33:03.904Z,0.00
2023-05-14T00:34:03.788Z,0.00
2023-05-14T00:35:03.802Z,0.00
2023-05-14T00:36:03.765Z,0.00
2023-05-14T00:37:03.780Z,0.00
2023-05-14T00:38:03.782Z,0.00
2023-05-14T00:39:03.769Z,0.00
2023-05-14T00:40:03.752Z,0.00
2023-05-14T00:41:03.706Z,0.00
2023-05-14T00:42:03.695Z,0.00
2023-05-14T00:43:03.734Z,0.00
2023-05-14T00:44:03.679Z,0.00
2023-05-14T00:45:03.681Z,0.00
2023-05-14T00:46:03.642Z,0.00
2023-05-14T00:47:03.783Z,0.00
2023-05-14T00:48:03.728Z,0.00
2023-05-14T00:49:03.611Z,0.00
2023-05-14T00:50:03.579Z,0.00
2023-05-14T00:51:03.567Z,0.00
2023-05-14T00:52:03.598Z,0.00
2023-05-14T00:53:03.570Z,0.00
2023-05-14T00:54:03.538Z,0.00
2023-05-14T00:55:03.556Z,0.00
2023-05-14T00:56:03.513Z,0.00
2023-05-14T00:57:03.489Z,0.00
2023-05-14T00:58:03.469Z,0.00
2023-05-14T00:59:03.508Z,0.00
2023-05-14T01:00:03.488Z,0.00
2023-05-14T01:01:03.501Z,0.00
2023-05-14T01:02:03.427Z,0.00
2023-05-14T01:03:03.795Z,0.00
2023-05-14T01:04:03.495Z,0.00
2023-05-14T01:05:03.401Z,0.00
2023-05-14T01:06:03.405Z,0.00
2023-05-14T01:07:03.359Z,0.00
2023-05-14T01:08:03.369Z,0.00
2023-05-14T01:09:03.357Z,0.00
2023-05-14T01:10:03.321Z,0.00
2023-05-14T01:11:03.328Z,0.00
2023-05-14T01:12:03.309Z,0.00
2023-05-14T01:13:03.277Z,0.00
2023-05-14T01:14:03.266Z,0.00
2023-05-14T01:15:03.277Z,0.00
2023-05-14T01:16:03.284Z,0.00
2023-05-14T01:17:03.229Z,0.00
2023-05-14T01:18:03.293Z,0.00
2023-05-14T01:19:03.257Z,0.00
2023-05-14T01:20:03.195Z,0.00
2023-05-14T01:21:03.174Z,0.00
2023-05-14T01:22:03.223Z,0.00
2023-05-14T01:23:03.202Z,0.00
2023-05-14T01:24:03.272Z,0.00
2023-05-14T01:25:03.145Z,0.00
2023-05-14T01:26:03.112Z,0.00
2023-05-14T01:27:03.096Z,0.00
2023-05-14T01:28:03.100Z,0.00
2023-05-14T01:29:03.121Z,0.00
2023-05-14T01:30:03.118Z,0.00
2023-05-14T01:31:03.086Z,0.00
2023-05-14T01:32:03.098Z,0.00
2023-05-14T01:33:03.084Z,0.00
2023-05-14T01:34:02.998Z,0.00
2023-05-14T01:35:03.034Z,0.00
2023-05-14T01:36:03.016Z,0.00
2023-05-14T01:37:02.960Z,0.00
2023-05-14T01:38:02.963Z,0.00
2023-05-14T01:39:02.936Z,0.00
2023-05-14T01:40:02.949Z,0.00
2023-05-14T01:41:02.929Z,0.00
2023-05-14T01:42:02.926Z,0.00
2023-05-14T01:43:02.991Z,0.00
2023-05-14T01:44:02.892Z,0.00
2023-05-14T01:45:02.869Z,0.00
2023-05-14T01:46:02.915Z,0.00
2023-05-14T01:47:02.874Z,0.00
2023-05-14T01:48:02.888Z,0.00
2023-05-14T01:49:02.793Z,0.00
2023-05-14T01:50:02.801Z,0.00
2023-05-14T01:51:02.785Z,0.00
2023-05-14T01:52:02.786Z,0.00
2023-05-14T01:53:02.820Z,0.00
2023-05-14T01:54:02.809Z,0.00
2023-05-14T01:55:02.732Z,0.00
2023-05-14T01:56:02.733Z,0.00
2023-05-14T01:57:02.717Z,0.00
2023-05-14T01:58:02.694Z,0.00
2023-05-14T01:59:02.697Z,0.00
2023-05-14T02:00:02.657Z,0.00
2023-05-14T02:01:02.696Z,0.00
2023-05-14T02:02:02.697Z,0.00
2023-05-14T02:03:02.682Z,0.00
2023-05-14T02:04:02.823Z,0.00
2023-05-14T02:05:03.488Z,0.00
2023-05-14T02:06:02.575Z,0.00
2023-05-14T02:07:02.576Z,0.00
2023-05-14T02:08:02.542Z,0.00
2023-05-14T02:09:02.538Z,0.00
2023-05-14T02:10:02.560Z,0.00
2023-05-14T02:11:02.510Z,0.00
2023-05-14T02:12:02.502Z,0.00
2023-05-14T02:13:02.496Z,0.00
2023-05-14T02:14:02.520Z,0.00
2023-05-14T02:15:02.459Z,0.00
2023-05-14T02:16:02.526Z,0.00
2023-05-14T02:17:02.437Z,0.00
2023-05-14T02:18:02.473Z,0.00
2023-05-14T02:19:02.476Z,0.00
2023-05-14T02:20:02.396Z,0.00
2023-05-14T02:21:02.426Z,0.00
2023-05-14T02:22:02.396Z,0.00
2023-05-14T02:23:02.360Z,0.00
2023-05-14T02:24:02.378Z,0.00
2023-05-14T02:25:02.343Z,0.00
2023-05-14T02:26:02.401Z,0.00
2023-05-14T02:27:02.373Z,0.00
2023-05-14T02:28:02.290Z,0.00
2023-05-14T02:29:02.297Z,0.00
2023-05-14T02:30:02.265Z,0.00
2023-05-14T02:31:02.324Z,0.00
2023-05-14T02:32:02.255Z,0.00
2023-05-14T02:33:02.326Z,0.00
2023-05-14T02:34:02.235Z,0.00
2023-05-14T02:35:02.216Z,0.00
2023-05-14T02:36:02.254Z,0.00
2023-05-14T02:37:02.180Z,0.00
2023-05-14T02:38:02.155Z,0.00
2023-05-14T02:39:02.169Z,0.00
2023-05-14T02:40:02.155Z,0.00
2023-05-14T02:41:02.111Z,0.00
2023-05-14T02:42:02.202Z,0.00
2023-05-14T02:43:02.095Z,0.00
2023-05-14T02:44:02.138Z,0.00
2023-05-14T02:45:02.117Z,0.00
2023-05-14T02:46:02.066Z,0.00
2023-05-14T02:47:02.067Z,0.00
2023-05-14T02:48:02.062Z,0.00
2023-05-14T02:49:02.024Z,0.00
2023-05-14T02:50:02.005Z,0.00
2023-05-14T02:51:02.026Z,0.00
2023-05-14T02:52:01.981Z,0.00
2023-05-14T02:53:01.967Z,0.00
2023-05-14T02:54:01.954Z,0.00
2023-05-14T02:55:01.982Z,0.00
2023-05-14T02:56:01.925Z,0.00
2023-05-14T02:57:01.984Z,0.00
2023-05-14T02:58:01.913Z,0.00
2023-05-14T02:59:01.889Z,0.00
2023-05-14T03:00:01.888Z,0.00
2023-05-14T03:01:01.920Z,0.00
2023-05-14T03:02:01.924Z,0.00
2023-05-14T03:03:01.862Z,0.00
2023-05-14T03:04:01.868Z,0.00
2023-05-14T03:05:01.813Z,0.00
2023-05-14T03:06:01.791Z,0.00
2023-05-14T03:07:01.844Z,0.00
2023-05-14T03:08:01.789Z,0.00
2023-05-14T03:09:01.817Z,0.00
2023-05-14T03:10:01.769Z,0.00
2023-05-14T03:11:01.736Z,0.00
2023-05-14T03:12:01.766Z,0.00
2023-05-14T03:13:01.702Z,0.00
2023-05-14T03:14:01.684Z,0.00
2023-05-14T03:15:01.708Z,0.00
2023-05-14T03:16:01.681Z,0.00
2023-05-14T03:17:01.712Z,0.00
2023-05-14T03:18:01.700Z,0.00
2023-05-14T03:19:01.651Z,0.00
2023-05-14T03:20:01.646Z,4.00
2023-05-14T03:21:01.621Z,4.00
2023-05-14T03:22:01.593Z,0.00
2023-05-14T03:23:01.684Z,0.00
2023-05-14T03:24:01.577Z,4.00
2023-05-14T03:25:01.540Z,4.00
2023-05-14T03:26:01.574Z,0.00
2023-05-14T03:27:01.526Z,4.00
2023-05-14T03:28:01.507Z,4.00
2023-05-14T03:29:01.529Z,4.00
2023-05-14T03:30:01.499Z,4.00
2023-05-14T03:31:01.564Z,4.00
2023-05-14T03:32:01.457Z,4.00
2023-05-14T03:33:01.504Z,4.00
2023-05-14T03:34:01.423Z,8.00
2023-05-14T03:35:01.437Z,4.00
2023-05-14T03:36:01.409Z,8.00
2023-05-14T03:37:01.380Z,12.00
2023-05-14T03:38:01.395Z,8.00
2023-05-14T03:39:01.352Z,12.00
2023-05-14T03:40:01.343Z,8.00
2023-05-14T03:41:01.353Z,12.00
2023-05-14T03:42:01.330Z,12.00
2023-05-14T03:43:01.305Z,16.00
2023-05-14T03:44:01.287Z,16.00
2023-05-14T03:45:01.316Z,16.00
2023-05-14T03:46:01.308Z,20.00
2023-05-14T03:47:01.258Z,20.00
2023-05-14T03:48:01.314Z,20.00
2023-05-14T03:49:01.241Z,24.00
2023-05-14T03:50:01.280Z,24.00
2023-05-14T03:51:01.235Z,28.00
2023-05-14T03:52:01.204Z,28.00
2023-05-14T03:53:01.166Z,32.00
2023-05-14T03:54:01.192Z,32.00
2023-05-14T03:55:01.144Z,36.00
2023-05-14T03:56:01.192Z,36.00
2023-05-14T03:57:01.123Z,40.00
2023-05-14T03:58:01.116Z,44.00
2023-05-14T03:59:01.112Z,44.00
2023-05-14T04:00:01.072Z,44.00
2023-05-14T04:01:01.212Z,52.00
2023-05-14T04:02:01.054Z,52.00
2023-05-14T04:03:01.084Z,56.00
2023-05-14T04:04:01.219Z,56.00
2023-05-14T04:05:01.009Z,56.00
2023-05-14T04:06:01.046Z,64.00
2023-05-14T04:07:00.995Z,68.00
2023-05-14T04:08:00.975Z,68.00
2023-05-14T04:09:00.980Z,72.00
2023-05-14T04:10:04.009Z,76.00
2023-05-14T04:11:00.983Z,80.00
2023-05-14T04:12:01.068Z,84.00
2023-05-14T04:13:00.929Z,84.00
2023-05-14T04:14:00.926Z,84.00
2023-05-14T04:15:00.903Z,88.00
2023-05-14T04:16:00.912Z,92.00
2023-05-14T04:17:00.900Z,96.00
2023-05-14T04:18:00.903Z,96.00
2023-05-14T04:19:00.863Z,100.00
2023-05-14T04:20:00.818Z,104.00
2023-05-14T04:21:00.798Z,104.00
2023-05-14T04:22:00.840Z,112.00
2023-05-14T04:23:00.779Z,116.00
2023-05-14T04:24:00.765Z,116.00
2023-05-14T04:25:00.753Z,116.00
2023-05-14T04:26:00.743Z,120.00
2023-05-14T04:27:00.764Z,124.00
2023-05-14T04:28:00.728Z,128.00
2023-05-14T04:29:00.701Z,136.00
2023-05-14T04:30:00.728Z,136.00
2023-05-14T04:31:00.693Z,140.00
2023-05-14T04:32:00.750Z,148.00
2023-05-14T04:33:00.706Z,148.00
2023-05-14T04:34:00.623Z,156.00
2023-05-14T04:35:00.612Z,156.00
2023-05-14T04:36:00.628Z,160.00
2023-05-14T04:37:00.613Z,164.00
2023-05-14T04:38:00.594Z,172.00
2023-05-14T04:39:00.578Z,172.00
2023-05-14T04:40:00.613Z,176.00
2023-05-14T04:41:00.550Z,184.00
2023-05-14T04:42:00.549Z,188.00
2023-05-14T04:43:00.554Z,192.00
2023-05-14T04:44:00.508Z,196.00
2023-05-14T04:45:00.566Z,200.00
2023-05-14T04:46:00.529Z,204.00
2023-05-14T04:47:00.478Z,208.00
2023-05-14T04:48:00.571Z,216.00
2023-05-14T04:49:00.432Z,220.00
2023-05-14T04:50:00.458Z,224.00
2023-05-14T04:51:00.441Z,232.00
2023-05-14T04:52:00.393Z,236.00
2023-05-14T04:53:00.373Z,240.00
2023-05-14T04:54:00.420Z,248.00
2023-05-14T04:55:00.366Z,252.00
2023-05-14T04:56:00.405Z,256.00
2023-05-14T04:57:00.419Z,264.00
2023-05-14T04:58:00.405Z,268.00
2023-05-14T04:59:00.369Z,272.00
2023-05-14T05:00:00.284Z,276.00
2023-05-14T05:01:00.469Z,280.00
2023-05-14T05:02:00.395Z,284.00
2023-05-14T05:03:00.415Z,288.00
2023-05-14T05:04:00.312Z,296.00
2023-05-14T05:05:00.224Z,296.00
2023-05-14T05:06:00.235Z,300.00
2023-05-14T05:07:00.200Z,304.00
2023-05-14T05:08:00.247Z,304.00
2023-05-14T05:09:01.942Z,308.00
2023-05-14T05:10:00.216Z,308.00
2023-05-14T05:11:00.145Z,312.00
2023-05-14T05:12:00.160Z,312.00
2023-05-14T05:13:00.192Z,316.00
2023-05-14T05:14:00.123Z,328.00
2023-05-14T05:15:00.148Z,336.00
2023-05-14T05:16:00.152Z,336.00
2023-05-14T05:17:00.221Z,332.00
2023-05-14T05:18:00.140Z,328.00
2023-05-14T05:19:00.177Z,312.00
2023-05-14T05:20:00.098Z,296.00
2023-05-14T05:21:00.033Z,296.00
2023-05-14T05:22:00.010Z,292.00
2023-05-14T05:23:00.029Z,272.00
2023-05-14T05:23:59.978Z,284.00
2023-05-14T05:25:00.072Z,252.00
2023-05-14T05:25:59.957Z,236.00
2023-05-14T05:26:59.943Z,224.00
2023-05-14T05:27:59.952Z,228.00
2023-05-14T05:28:59.944Z,240.00
2023-05-14T05:29:59.904Z,260.00
2023-05-14T05:30:59.896Z,264.00
2023-05-14T05:31:59.875Z,268.00
2023-05-14T05:32:59.884Z,320.00
2023-05-14T05:33:59.843Z,324.00
2023-05-14T05:34:59.857Z,344.00
2023-05-14T05:35:59.827Z,324.00
2023-05-14T05:36:59.790Z,504.00
2023-05-14T05:38:01.332Z,584.00
2023-05-14T05:38:59.775Z,560.00
2023-05-14T05:39:59.805Z,612.00
2023-05-14T05:40:59.748Z,708.00
2023-05-14T05:41:59.742Z,724.00
2023-05-14T05:42:59.747Z,764.00
2023-05-14T05:43:59.709Z,828.00
2023-05-14T05:44:59.764Z,872.00
2023-05-14T05:45:59.734Z,872.00
2023-05-14T05:46:59.802Z,884.00
2023-05-14T05:47:59.690Z,912.00
2023-05-14T05:48:59.643Z,936.00
2023-05-14T05:49:59.631Z,964.00
2023-05-14T05:50:59.658Z,968.00
2023-05-14T05:51:59.611Z,984.00
2023-05-14T05:52:59.700Z,1000.00
2023-05-14T05:53:59.580Z,1008.00
2023-05-14T05:54:59.594Z,1020.00
2023-05-14T05:55:59.555Z,1032.00
2023-05-14T05:56:59.746Z,1040.00
2023-05-14T05:57:59.539Z,1052.00
2023-05-14T05:58:59.517Z,1060.00
2023-05-14T05:59:59.506Z,1068.00
2023-05-14T06:00:59.482Z,1068.00
2023-05-14T06:01:59.617Z,1072.00
2023-05-14T06:02:59.513Z,1084.00
2023-05-14T06:03:59.456Z,1092.00
2023-05-14T06:04:59.457Z,1096.00
2023-05-14T06:05:59.447Z,1104.00
2023-05-14T06:06:59.400Z,1108.00
2023-05-14T06:07:59.469Z,1116.00
2023-05-14T06:08:59.397Z,1124.00
2023-05-14T06:09:59.373Z,1124.00
2023-05-14T06:10:59.360Z,1128.00
2023-05-14T06:11:59.373Z,1136.00
2023-05-14T06:12:59.369Z,1136.00
2023-05-14T06:13:59.442Z,1144.00
2023-05-14T06:14:59.310Z,1144.00
2023-05-14T06:15:59.320Z,1148.00
2023-05-14T06:16:59.306Z,1156.00
2023-05-14T06:17:59.356Z,1164.00
2023-05-14T06:18:59.288Z,1176.00
2023-05-14T06:19:59.260Z,1184.00
2023-05-14T06:20:59.221Z,1188.00
2023-05-14T06:21:59.207Z,1200.00
2023-05-14T06:22:59.195Z,1204.00
2023-05-14T06:23:59.191Z,1204.00
2023-05-14T06:24:59.464Z,1204.00
2023-05-14T06:25:59.163Z,1212.00
2023-05-14T06:26:59.156Z,1220.00
2023-05-14T06:27:59.137Z,1224.00
2023-05-14T06:28:59.117Z,1228.00
2023-05-14T06:29:59.114Z,1240.00
2023-05-14T06:30:59.121Z,1252.00
2023-05-14T06:31:59.124Z,1268.00
2023-05-14T06:32:59.094Z,1280.00
2023-05-14T06:33:59.047Z,1288.00
2023-05-14T06:34:59.063Z,1300.00
2023-05-14T06:35:59.042Z,1308.00
2023-05-14T06:36:59.006Z,1320.00
2023-05-14T06:37:59.007Z,1328.00
2023-05-14T06:38:58.983Z,1332.00
2023-05-14T06:39:58.988Z,1332.00
2023-05-14T06:40:58.996Z,1344.00
2023-05-14T06:41:58.989Z,1352.00
2023-05-14T06:42:58.927Z,1360.00
2023-05-14T06:43:58.923Z,1372.00
2023-05-14T06:44:58.927Z,1368.00
2023-05-14T06:45:58.892Z,1380.00
2023-05-14T06:46:58.884Z,1384.00
2023-05-14T06:47:58.988Z,1392.00
2023-05-14T06:48:59.447Z,1404.00
2023-05-14T06:49:58.883Z,1408.00
2023-05-14T06:50:58.833Z,1416.00
2023-05-14T06:51:58.821Z,1420.00
2023-05-14T06:52:58.792Z,1432.00
2023-05-14T06:53:58.801Z,1436.00
2023-05-14T06:54:58.866Z,1440.00
2023-05-14T06:55:58.776Z,1444.00
2023-05-14T06:56:58.748Z,1460.00
2023-05-14T06:57:58.748Z,1468.00
2023-05-14T06:58:58.739Z,1484.00
2023-05-14T06:59:58.708Z,1492.00
2023-05-14T07:00:58.880Z,1504.00
2023-05-14T07:01:58.810Z,1512.00
2023-05-14T07:02:58.690Z,1516.00
2023-05-14T07:03:58.722Z,1524.00
2023-05-14T07:04:58.673Z,1532.00
2023-05-14T07:05:58.665Z,1540.00
2023-05-14T07:06:58.648Z,1540.00
2023-05-14T07:07:58.604Z,1540.00
2023-05-14T07:08:58.592Z,1552.00
2023-05-14T07:09:58.595Z,1552.00
2023-05-14T07:10:58.579Z,1560.00
2023-05-14T07:11:58.587Z,1564.00
2023-05-14T07:12:58.577Z,1568.00
2023-05-14T07:13:58.528Z,1576.00
2023-05-14T07:14:58.583Z,1580.00
2023-05-14T07:15:58.518Z,1580.00
2023-05-14T07:16:58.651Z,1580.00
2023-05-14T07:17:58.525Z,1584.00
2023-05-14T07:18:58.498Z,1588.00
2023-05-14T07:19:58.472Z,1584.00
2023-05-14T07:20:58.453Z,1580.00
2023-05-14T07:21:58.450Z,1584.00
2023-05-14T07:22:58.420Z,1588.00
2023-05-14T07:23:58.438Z,1588.00
2023-05-14T07:24:58.432Z,1588.00
2023-05-14T07:25:58.396Z,1592.00
2023-05-14T07:26:58.366Z,1600.00
2023-05-14T07:27:58.334Z,1604.00
2023-05-14T07:28:58.337Z,1600.00
2023-05-14T07:29:58.319Z,1600.00
2023-05-14T07:30:58.402Z,1600.00
2023-05-14T07:31:58.300Z,1604.00
2023-05-14T07:32:58.366Z,1600.00
2023-05-14T07:33:58.295Z,1604.00
2023-05-14T07:34:58.268Z,1604.00
2023-05-14T07:35:58.250Z,1600.00
2023-05-14T07:36:58.245Z,1604.00
2023-05-14T07:37:58.262Z,1600.00
2023-05-14T07:38:58.206Z,1600.00
2023-05-14T07:39:58.178Z,1604.00
2023-05-14T07:40:58.162Z,1604.00
2023-05-14T07:41:58.156Z,1608.00
2023-05-14T07:42:58.209Z,1608.00
2023-05-14T07:43:58.168Z,1612.00
2023-05-14T07:44:58.135Z,1616.00
2023-05-14T07:45:58.117Z,1612.00
2023-05-14T07:46:58.143Z,1612.00
2023-05-14T07:47:58.252Z,1616.00
2023-05-14T07:48:58.197Z,1616.00
2023-05-14T07:49:58.081Z,1624.00
2023-05-14T07:50:58.050Z,1624.00
2023-05-14T07:51:58.029Z,1620.00
2023-05-14T07:52:58.026Z,1628.00
2023-05-14T07:53:57.991Z,1620.00
2023-05-14T07:54:58.009Z,1624.00
2023-05-14T07:55:57.978Z,1628.00
2023-05-14T07:56:57.952Z,1628.00
2023-05-14T07:57:57.963Z,1632.00
2023-05-14T07:58:59.912Z,1632.00
2023-05-14T07:59:58.175Z,1636.00
2023-05-14T08:00:57.907Z,1644.00
2023-05-14T08:01:58.183Z,1640.00
2023-05-14T08:02:58.118Z,1644.00
2023-05-14T08:03:57.971Z,1648.00
2023-05-14T08:04:57.870Z,1648.00
2023-05-14T08:05:57.831Z,1648.00
2023-05-14T08:06:57.841Z,1656.00
2023-05-14T08:07:57.824Z,1656.00
2023-05-14T08:08:57.906Z,1656.00
2023-05-14T08:09:57.810Z,1648.00
2023-05-14T08:10:57.819Z,1644.00
2023-05-14T08:11:57.799Z,1644.00
2023-05-14T08:12:57.748Z,1644.00
2023-05-14T08:13:57.760Z,1608.00
2023-05-14T08:14:57.716Z,1600.00
2023-05-14T08:15:57.725Z,1632.00
2023-05-14T08:16:57.791Z,1632.00
2023-05-14T08:17:57.724Z,1636.00
2023-05-14T08:18:57.671Z,1636.00
2023-05-14T08:19:57.657Z,1608.00
2023-05-14T08:20:57.936Z,1804.00
2023-05-14T08:21:57.786Z,1828.00
2023-05-14T08:22:57.633Z,1812.00
2023-05-14T08:23:57.615Z,1804.00
2023-05-14T08:24:57.619Z,1808.00
2023-05-14T08:25:57.579Z,1804.00
2023-05-14T08:26:57.612Z,1788.00
2023-05-14T08:27:57.595Z,1792.00
2023-05-14T08:28:57.539Z,1816.00
2023-05-14T08:29:57.550Z,1708.00
2023-05-14T08:30:57.547Z,1808.00
2023-05-14T08:31:58.075Z,1720.00
2023-05-14T08:32:57.570Z,1784.00
2023-05-14T08:33:57.512Z,1740.00
2023-05-14T08:34:57.483Z,1752.00
2023-05-14T08:35:57.465Z,1532.00
2023-05-14T08:36:57.448Z,1776.00
2023-05-14T08:37:57.485Z,1364.00
2023-05-14T08:38:57.460Z,1124.00
2023-05-14T08:39:57.393Z,1116.00
2023-05-14T08:40:57.387Z,1140.00
2023-05-14T08:41:57.405Z,1096.00
2023-05-14T08:42:57.396Z,1160.00
2023-05-14T08:43:57.395Z,1140.00
2023-05-14T08:44:57.375Z,1172.00
2023-05-14T08:45:57.306Z,1136.00
2023-05-14T08:46:57.313Z,1140.00
2023-05-14T08:47:57.381Z,1132.00
2023-05-14T08:48:57.331Z,1168.00
2023-05-14T08:49:57.268Z,1172.00
2023-05-14T08:50:57.312Z,1184.00
2023-05-14T08:51:57.257Z,1188.00
2023-05-14T08:52:57.262Z,1188.00
2023-05-14T08:53:57.225Z,1208.00
2023-05-14T08:54:57.294Z,1208.00
2023-05-14T08:55:57.185Z,1220.00
2023-05-14T08:56:57.168Z,1228.00
2023-05-14T08:57:57.156Z,1224.00
2023-05-14T08:58:57.168Z,1232.00
2023-05-14T08:59:57.134Z,1224.00
2023-05-14T09:00:57.125Z,1228.00
2023-05-14T09:01:57.147Z,1220.00
2023-05-14T09:02:57.208Z,1164.00
2023-05-14T09:03:57.099Z,1196.00
2023-05-14T09:04:57.113Z,1204.00
2023-05-14T09:05:58.658Z,1208.00
2023-05-14T09:06:57.042Z,1236.00
2023-05-14T09:07:57.043Z,1236.00
2023-05-14T09:08:57.014Z,1224.00
2023-05-14T09:09:57.025Z,1216.00
2023-05-14T09:10:57.037Z,1084.00
2023-05-14T09:11:56.997Z,1376.00
2023-05-14T09:12:56.966Z,1372.00
2023-05-14T09:13:56.961Z,1456.00
2023-05-14T09:14:56.936Z,1248.00
2023-05-14T09:15:56.939Z,1336.00
2023-05-14T09:16:56.935Z,1316.00
2023-05-14T09:17:57.023Z,1304.00
2023-05-14T09:18:56.907Z,1412.00
2023-05-14T09:19:56.880Z,1292.00
2023-05-14T09:20:56.854Z,1340.00
2023-05-14T09:21:56.860Z,1320.00
2023-05-14T09:22:56.973Z,1296.00
2023-05-14T09:23:56.809Z,1308.00
2023-05-14T09:24:56.815Z,1332.00
2023-05-14T09:25:56.825Z,1332.00
2023-05-14T09:26:57.083Z,1304.00
2023-05-14T09:27:58.678Z,1380.00
2023-05-14T09:28:56.764Z,1380.00
2023-05-14T09:29:57.486Z,1324.00
2023-05-14T09:30:57.668Z,1336.00
2023-05-14T09:31:56.796Z,1308.00
2023-05-14T09:32:56.761Z,1328.00
2023-05-14T09:33:56.704Z,1292.00
2023-05-14T09:34:56.684Z,1324.00
2023-05-14T09:35:58.316Z,1392.00
2023-05-14T09:36:56.687Z,1348.00
2023-05-14T09:37:56.644Z,1360.00
2023-05-14T09:38:56.637Z,1416.00
2023-05-14T09:39:56.603Z,1420.00
2023-05-14T09:40:56.634Z,1324.00
2023-05-14T09:41:56.590Z,1340.00
2023-05-14T09:42:56.829Z,1380.00
2023-05-14T09:43:56.593Z,1440.00
2023-05-14T09:44:56.532Z,1440.00
2023-05-14T09:45:56.533Z,1460.00
2023-05-14T09:46:56.673Z,1468.00
2023-05-14T09:47:56.674Z,1540.00
2023-05-14T09:48:56.764Z,1348.00
2023-05-14T09:49:56.481Z,1368.00
2023-05-14T09:50:56.466Z,1476.00
2023-05-14T09:51:56.476Z,1352.00
2023-05-14T09:52:56.877Z,1352.00
2023-05-14T09:53:56.453Z,1340.00
2023-05-14T09:54:56.602Z,1356.00
2023-05-14T09:55:56.427Z,1384.00
2023-05-14T09:56:56.375Z,1368.00
2023-05-14T09:57:56.367Z,1364.00
2023-05-14T09:58:56.666Z,1336.00
2023-05-14T09:59:56.389Z,1324.00
2023-05-14T10:00:56.375Z,1328.00
2023-05-14T10:01:56.338Z,1328.00
2023-05-14T10:02:56.334Z,1364.00
2023-05-14T10:03:56.345Z,1360.00
2023-05-14T10:04:56.338Z,1368.00
2023-05-14T10:05:57.496Z,1400.00
2023-05-14T10:06:56.265Z,1400.00
2023-05-14T10:07:56.243Z,1384.00
2023-05-14T10:08:56.220Z,1416.00
2023-05-14T10:09:57.615Z,1396.00
2023-05-14T10:10:56.247Z,1428.00
2023-05-14T10:11:56.204Z,1440.00
2023-05-14T10:12:56.179Z,1452.00
2023-05-14T10:13:56.168Z,1460.00
2023-05-14T10:14:56.152Z,1468.00
2023-05-14T10:15:56.142Z,1468.00
2023-05-14T10:16:56.173Z,1472.00
2023-05-14T10:17:56.160Z,1496.00
2023-05-14T10:18:57.292Z,1512.00
2023-05-14T10:19:56.088Z,1500.00
2023-05-14T10:20:56.058Z,1360.00
2023-05-14T10:21:56.124Z,1296.00
2023-05-14T10:22:56.087Z,1200.00
2023-05-14T10:23:56.048Z,1452.00
2023-05-14T10:24:56.017Z,1436.00
2023-05-14T10:25:56.040Z,1540.00
2023-05-14T10:26:56.026Z,1560.00
2023-05-14T10:27:55.967Z,1564.00
2023-05-14T10:28:56.062Z,1568.00
2023-05-14T10:29:55.950Z,1552.00
2023-05-14T10:30:55.997Z,1544.00
2023-05-14T10:31:55.949Z,1540.00
2023-05-14T10:32:55.936Z,1560.00
2023-05-14T10:34:55.913Z,1576.00
2023-05-14T10:35:55.877Z,1532.00
2023-05-14T10:36:55.855Z,1524.00
2023-05-14T10:37:55.860Z,1532.00
2023-05-14T10:38:55.854Z,1548.00
2023-05-14T10:39:55.835Z,1536.00
2023-05-14T10:40:55.819Z,1460.00
2023-05-14T10:41:55.821Z,1548.00
2023-05-14T10:42:55.786Z,1568.00
2023-05-14T10:43:55.799Z,1580.00
2023-05-14T10:44:55.752Z,1512.00
2023-05-14T10:45:55.739Z,1500.00
2023-05-14T10:46:55.769Z,1496.00
2023-05-14T10:47:56.007Z,1204.00
2023-05-14T10:48:55.704Z,1228.00
2023-05-14T10:49:55.693Z,1184.00
2023-05-14T10:50:55.758Z,1260.00
2023-05-14T10:51:55.672Z,1300.00
2023-05-14T10:52:55.670Z,1360.00
2023-05-14T10:53:55.647Z,1348.00
2023-05-14T10:54:55.631Z,1368.00
2023-05-14T10:55:55.645Z,1360.00
2023-05-14T10:56:55.594Z,1372.00
2023-05-14T10:57:55.605Z,1376.00
2023-05-14T10:58:55.587Z,1388.00
2023-05-14T10:59:55.589Z,1384.00
2023-05-14T11:00:55.556Z,1336.00
2023-05-14T11:01:55.611Z,1356.00
2023-05-14T11:02:55.930Z,1388.00
2023-05-14T11:03:55.563Z,1384.00
2023-05-14T11:04:55.506Z,1392.00
2023-05-14T11:05:55.508Z,1364.00
2023-05-14T11:06:55.464Z,1376.00
2023-05-14T11:07:55.468Z,1384.00
2023-05-14T11:08:55.451Z,1420.00
2023-05-14T11:09:55.413Z,1572.00
2023-05-14T11:10:55.417Z,1592.00
2023-05-14T11:11:55.419Z,1612.00
2023-05-14T11:12:56.409Z,1684.00
2023-05-14T11:13:55.376Z,1804.00
2023-05-14T11:14:55.381Z,1876.00
2023-05-14T11:15:55.356Z,1860.00
2023-05-14T11:16:55.457Z,1844.00
2023-05-14T11:17:55.394Z,1848.00
2023-05-14T11:18:55.364Z,1864.00
2023-05-14T11:19:55.293Z,1876.00
2023-05-14T11:20:55.287Z,1876.00
2023-05-14T11:21:55.276Z,1896.00
2023-05-14T11:22:55.260Z,1904.00
2023-05-14T11:23:55.732Z,1912.00
2023-05-14T11:24:55.260Z,1936.00
2023-05-14T11:25:55.336Z,1928.00
2023-05-14T11:26:55.206Z,1928.00
2023-05-14T11:27:55.207Z,1948.00
2023-05-14T11:28:55.249Z,1844.00
2023-05-14T11:29:55.197Z,1704.00
2023-05-14T11:30:55.919Z,1572.00
2023-05-14T11:31:55.205Z,1652.00
2023-05-14T11:32:55.185Z,1524.00
2023-05-14T11:33:55.198Z,1420.00
2023-05-14T11:34:55.172Z,1440.00
2023-05-14T11:35:55.109Z,1392.00
2023-05-14T11:36:55.108Z,1424.00
2023-05-14T11:37:55.106Z,1388.00
2023-05-14T11:38:55.082Z,1472.00
2023-05-14T11:39:55.098Z,1436.00
2023-05-14T11:40:55.088Z,1448.00
2023-05-14T11:41:55.033Z,1440.00
2023-05-14T11:42:55.012Z,1416.00
2023-05-14T11:43:55.008Z,1416.00
2023-05-14T11:44:55.006Z,1460.00
2023-05-14T11:45:55.019Z,1688.00
2023-05-14T11:46:55.014Z,1756.00
2023-05-14T11:47:55.073Z,1852.00
2023-05-14T11:48:54.951Z,1680.00
2023-05-14T11:49:54.938Z,1688.00
2023-05-14T11:50:54.906Z,1808.00
2023-05-14T11:51:54.892Z,1708.00
2023-05-14T11:52:54.902Z,1672.00
2023-05-14T11:53:54.868Z,1740.00
2023-05-14T11:54:54.877Z,1516.00
2023-05-14T11:55:54.918Z,1564.00
2023-05-14T11:56:54.832Z,1620.00
2023-05-14T11:57:54.835Z,1536.00
2023-05-14T11:58:54.798Z,500.00
2023-05-14T11:59:54.810Z,544.00
2023-05-14T12:00:54.794Z,1472.00
2023-05-14T12:01:54.793Z,1692.00
2023-05-14T12:02:54.881Z,1512.00
2023-05-14T12:03:54.797Z,1588.00
2023-05-14T12:04:54.806Z,1644.00
2023-05-14T12:05:54.733Z,1736.00
2023-05-14T12:06:54.697Z,2000.00
2023-05-14T12:07:54.684Z,1964.00
2023-05-14T12:08:54.672Z,1924.00
2023-05-14T12:09:54.672Z,1612.00
2023-05-14T12:10:54.696Z,1600.00
2023-05-14T12:11:54.677Z,1840.00
2023-05-14T12:12:54.638Z,2084.00
2023-05-14T12:13:54.595Z,2060.00
2023-05-14T12:14:54.577Z,1572.00
2023-05-14T12:15:54.643Z,1716.00
2023-05-14T12:16:54.557Z,1748.00
2023-05-14T12:17:54.659Z,944.00
2023-05-14T12:18:54.554Z,1828.00
2023-05-14T12:19:54.529Z,1832.00
2023-05-14T12:20:54.511Z,1808.00
2023-05-14T12:21:54.516Z,1772.00
2023-05-14T12:22:54.510Z,1748.00
2023-05-14T12:23:54.471Z,1756.00
2023-05-14T12:24:54.531Z,1724.00
2023-05-14T12:25:54.446Z,1792.00
2023-05-14T12:26:54.467Z,1568.00
2023-05-14T12:27:54.415Z,1776.00
2023-05-14T12:28:54.468Z,1752.00
2023-05-14T12:29:54.387Z,1716.00
2023-05-14T12:30:54.375Z,1680.00
2023-05-14T12:31:54.463Z,1660.00